Time;durP1;ratioP1;P1;durP2;ratioP2;P2;SDS_P1;SDS_P2;PMS_P1;PMS_P2;Temp;Humidity;BMP_temperature;BMP_pressure;BME280_temperature;BME280_humidity;BME280_pressure;Samples;Min_cycle;Max_cycle;Signal;HPM_P1;HPM_P2
2023/08/06 00:00:00;;;;;;;25.13;13.00;;;14.30;99.90;;;;;;4982660;28;20518;-64
2023/08/06 00:02:25;;;;;;;31.67;16.77;;;14.00;99.90;;;;;;4983125;28;20082;-64
2023/08/06 00:04:52;;;;;;;27.52;14.45;;;14.20;99.90;;;;;;4988386;28;20381;-64
2023/08/06 00:07:18;;;;;;;28.30;15.93;;;14.00;99.90;;;;;;4989881;28;20046;-64
2023/08/06 00:09:43;;;;;;;24.02;14.52;;;14.00;99.90;;;;;;4984199;28;20049;-64
2023/08/06 00:12:09;;;;;;;24.75;15.27;;;14.20;99.90;;;;;;4990737;28;20118;-64
2023/08/06 00:14:35;;;;;;;20.90;14.02;;;13.90;99.90;;;;;;4971412;28;20066;-64
2023/08/06 00:17:01;;;;;;;20.38;14.27;;;13.90;99.90;;;;;;4991276;28;20030;-64
2023/08/06 00:19:26;;;;;;;26.30;15.77;;;13.70;99.90;;;;;;4991277;28;20165;-64
2023/08/06 00:21:52;;;;;;;38.65;18.20;;;13.60;99.90;;;;;;4987567;28;20124;-64
2023/08/06 00:24:18;;;;;;;25.17;15.85;;;14.20;99.90;;;;;;4987269;28;20049;-65
2023/08/06 00:26:43;;;;;;;27.58;16.38;;;13.80;99.90;;;;;;4985762;28;20042;-64
2023/08/06 00:29:09;;;;;;;42.35;20.48;;;14.00;99.90;;;;;;4990880;28;20387;-64
2023/08/06 00:31:35;;;;;;;27.42;16.65;;;14.30;99.90;;;;;;4987270;28;20041;-64
2023/08/06 00:34:00;;;;;;;26.35;15.13;;;14.20;99.90;;;;;;4990001;28;20352;-65
2023/08/06 00:36:26;;;;;;;29.23;17.05;;;14.00;99.90;;;;;;4990881;28;20559;-65
2023/08/06 00:38:52;;;;;;;36.08;19.25;;;14.20;99.90;;;;;;4987656;28;20034;-64
2023/08/06 00:41:17;;;;;;;21.80;14.75;;;14.20;99.90;;;;;;4991086;28;20042;-64
2023/08/06 00:43:46;;;;;;;33.70;18.65;;;14.00;99.90;;;;;;4968718;28;20077;-64
2023/08/06 00:46:12;;;;;;;31.33;19.20;;;13.90;99.90;;;;;;4987095;28;20069;-64
2023/08/06 00:48:38;;;;;;;49.00;21.63;;;14.00;99.90;;;;;;4988241;28;20038;-64
2023/08/06 00:51:03;;;;;;;27.45;15.93;;;13.70;99.90;;;;;;4987361;28;20065;-64
2023/08/06 00:53:29;;;;;;;21.80;15.23;;;14.10;99.90;;;;;;4987763;28;20215;-65
2023/08/06 00:55:55;;;;;;;29.65;16.73;;;13.90;99.90;;;;;;4989578;28;20042;-63
2023/08/06 00:58:21;;;;;;;30.90;16.88;;;13.60;99.90;;;;;;4983875;28;20034;-64
2023/08/06 01:00:47;;;;;;;32.92;18.25;;;14.20;99.90;;;;;;4987472;28;20030;-63
2023/08/06 01:03:12;;;;;;;32.42;17.45;;;13.80;99.90;;;;;;4987744;28;20109;-64
2023/08/06 01:05:38;;;;;;;34.45;17.77;;;14.00;99.90;;;;;;4985524;28;20484;-64
2023/08/06 01:08:31;;;;;;;28.48;15.80;;;13.90;99.90;;;;;;4985944;28;20121;-65
2023/08/06 01:11:30;;;;;;;19.75;14.57;;;13.80;99.90;;;;;;4989455;28;20057;-64
2023/08/06 01:14:10;;;;;;;25.58;14.52;;;13.90;99.90;;;;;;4985382;28;20523;-65
2023/08/06 01:16:37;;;;;;;22.60;15.15;;;14.00;99.90;;;;;;4980101;28;20041;-65
2023/08/06 01:19:03;;;;;;;24.73;15.43;;;14.00;99.90;;;;;;4978559;28;20042;-64
2023/08/06 01:21:28;;;;;;;40.17;20.80;;;13.70;99.90;;;;;;4982337;28;20039;-65
2023/08/06 01:23:54;;;;;;;35.40;19.33;;;14.20;99.90;;;;;;4988539;28;20050;-64
2023/08/06 01:26:35;;;;;;;34.28;17.75;;;13.90;99.90;;;;;;4989811;28;20049;-63
2023/08/06 01:29:01;;;;;;;33.65;18.15;;;;;;;;;;4982485;28;20042;-64
2023/08/06 01:31:31;;;;;;;22.60;15.32;;;13.70;99.90;;;;;;4989206;28;20038;-65
2023/08/06 01:34:00;;;;;;;22.15;14.90;;;13.90;99.90;;;;;;4979528;28;20041;-64
2023/08/06 01:36:28;;;;;;;28.05;16.70;;;13.80;99.90;;;;;;4979483;28;20035;-64
2023/08/06 01:38:57;;;;;;;20.85;13.50;;;14.30;99.90;;;;;;4977672;28;20055;-64
2023/08/06 01:41:23;;;;;;;25.02;15.43;;;13.50;99.90;;;;;;4994129;28;20046;-64
2023/08/06 01:43:48;;;;;;;25.65;16.30;;;13.90;99.90;;;;;;5005759;28;20052;-65
2023/08/06 01:46:17;;;;;;;36.17;19.52;;;14.10;99.90;;;;;;4997001;28;20404;-64
2023/08/06 01:48:43;;;;;;;24.73;15.98;;;14.00;99.90;;;;;;4988551;28;20050;-64
2023/08/06 01:51:09;;;;;;;24.08;16.30;;;13.70;99.90;;;;;;4995533;28;20137;-64
2023/08/06 01:53:34;;;;;;;32.33;18.13;;;14.10;99.90;;;;;;4984496;28;20039;-64
2023/08/06 01:56:00;;;;;;;27.17;16.92;;;13.70;99.90;;;;;;4995905;28;20121;-64
2023/08/06 01:58:26;;;;;;;22.52;15.68;;;13.60;99.90;;;;;;4982338;28;20038;-63
2023/08/06 02:00:51;;;;;;;52.83;22.90;;;13.90;99.90;;;;;;4999738;28;20041;-64
2023/08/06 02:03:17;;;;;;;27.20;15.77;;;14.50;99.90;;;;;;4992005;28;20038;-64
2023/08/06 02:05:43;;;;;;;26.85;15.65;;;;;;;;;;4999132;28;20034;-64
2023/08/06 02:08:09;;;;;;;53.42;23.35;;;13.70;99.90;;;;;;4992467;28;20054;-64
2023/08/06 02:10:35;;;;;;;27.40;16.65;;;14.00;99.90;;;;;;4988004;28;20040;-64
2023/08/06 02:13:00;;;;;;;51.30;20.65;;;14.00;99.90;;;;;;4976082;28;20480;-64
2023/08/06 02:15:26;;;;;;;34.50;19.27;;;13.90;99.90;;;;;;4990822;28;20401;-65
2023/08/06 02:17:52;;;;;;;37.13;20.35;;;14.10;99.90;;;;;;4985601;28;20408;-64
2023/08/06 02:20:17;;;;;;;24.95;16.25;;;14.30;99.90;;;;;;4986611;28;20084;-63
2023/08/06 02:22:43;;;;;;;59.15;23.27;;;14.00;99.90;;;;;;4991379;28;20046;-63
2023/08/06 02:25:09;;;;;;;36.88;20.88;;;14.20;99.90;;;;;;4991317;28;20035;-65
2023/08/06 02:27:34;;;;;;;39.42;19.35;;;13.60;99.90;;;;;;4990058;28;20445;-64
2023/08/06 02:30:00;;;;;;;32.63;18.17;;;13.60;99.90;;;;;;4999264;28;22154;-65
2023/08/06 02:32:26;;;;;;;51.42;22.50;;;13.90;99.90;;;;;;5008917;28;20038;-64
2023/08/06 02:34:52;;;;;;;63.47;26.67;;;13.80;99.90;;;;;;4995336;28;20085;-64
2023/08/06 02:37:17;;;;;;;64.95;25.65;;;14.30;99.90;;;;;;5001155;28;20030;-64
2023/08/06 02:39:43;;;;;;;35.10;19.25;;;14.00;99.90;;;;;;4991932;28;20133;-64
2023/08/06 02:42:09;;;;;;;27.92;17.85;;;14.10;99.90;;;;;;4996555;28;20038;-64
2023/08/06 02:44:35;;;;;;;26.00;17.05;;;14.00;99.90;;;;;;4995221;28;20042;-64
2023/08/06 02:47:01;;;;;;;48.78;21.45;;;14.20;99.90;;;;;;4993948;28;20042;-64
2023/08/06 02:49:27;;;;;;;28.50;17.83;;;14.00;99.90;;;;;;4993420;28;20485;-65
2023/08/06 02:51:52;;;;;;;38.53;18.77;;;13.90;99.90;;;;;;4996940;28;20045;-63
2023/08/06 02:54:18;;;;;;;31.60;18.02;;;14.20;99.90;;;;;;4973075;28;20097;-64
2023/08/06 02:56:46;;;;;;;39.28;19.70;;;14.30;99.90;;;;;;4996887;28;20042;-64
2023/08/06 02:59:14;;;;;;;44.55;20.17;;;14.50;99.90;;;;;;4997702;28;20042;-64
2023/08/06 03:01:40;;;;;;;36.38;19.55;;;14.00;99.90;;;;;;5008959;28;20038;-65
2023/08/06 03:04:06;;;;;;;43.50;20.63;;;14.10;99.90;;;;;;5007011;28;20459;-64
2023/08/06 03:06:32;;;;;;;32.38;17.77;;;14.10;99.90;;;;;;4999326;28;20038;-64
2023/08/06 03:08:58;;;;;;;39.15;18.23;;;14.20;99.90;;;;;;4995325;28;20130;-64
2023/08/06 03:11:23;;;;;;;37.80;18.00;;;14.20;99.90;;;;;;4976637;28;20081;-65
2023/08/06 03:13:52;;;;;;;25.83;16.88;;;14.30;99.90;;;;;;4966190;28;20044;-64
2023/08/06 03:16:20;;;;;;;35.42;19.23;;;13.70;99.90;;;;;;4978505;28;20034;-65
2023/08/06 03:18:47;;;;;;;25.17;15.85;;;14.30;99.90;;;;;;4991992;28;20077;-64
2023/08/06 03:21:13;;;;;;;32.53;18.13;;;13.90;99.90;;;;;;4997877;28;20045;-64
2023/08/06 03:23:39;;;;;;;31.52;17.00;;;14.40;99.90;;;;;;4988439;28;20404;-65
2023/08/06 03:26:04;;;;;;;30.48;17.15;;;14.20;99.90;;;;;;4981310;28;20039;-64
2023/08/06 03:28:30;;;;;;;29.92;16.52;;;14.50;99.90;;;;;;5009815;28;20330;-65
2023/08/06 03:31:03;;;;;;;30.95;16.75;;;14.20;99.90;;;;;;4993481;28;20209;-65
2023/08/06 03:33:29;;;;;;;23.35;14.95;;;13.80;99.90;;;;;;4994150;28;20030;-64
2023/08/06 03:35:55;;;;;;;24.38;15.70;;;13.90;99.90;;;;;;4993749;28;20699;-65
2023/08/06 03:38:22;;;;;;;31.58;16.55;;;14.10;99.90;;;;;;4986560;28;20400;-64
2023/08/06 03:40:48;;;;;;;28.85;17.42;;;14.40;99.90;;;;;;4993305;28;20043;-64
2023/08/06 03:43:14;;;;;;;23.88;16.15;;;14.20;99.90;;;;;;4989851;28;20045;-65
2023/08/06 03:45:43;;;;;;;32.92;18.67;;;14.50;99.90;;;;;;4992088;28;20030;-65
2023/08/06 03:48:09;;;;;;;23.98;15.68;;;14.00;99.90;;;;;;4986068;28;20037;-64
2023/08/06 03:50:35;;;;;;;22.45;14.88;;;14.10;99.90;;;;;;4990513;28;20465;-64
2023/08/06 03:53:01;;;;;;;50.10;22.90;;;14.20;99.90;;;;;;4988950;28;20105;-64
2023/08/06 03:55:26;;;;;;;39.17;20.42;;;13.90;99.90;;;;;;4995906;28;20109;-65
2023/08/06 03:57:52;;;;;;;28.75;16.98;;;14.30;99.90;;;;;;4983221;28;20039;-64
2023/08/06 04:00:18;;;;;;;31.48;19.02;;;14.20;99.90;;;;;;4970531;28;21513;-64
2023/08/06 04:02:43;;;;;;;33.92;19.40;;;14.10;99.90;;;;;;4990384;28;20054;-64
2023/08/06 04:05:09;;;;;;;31.52;19.33;;;14.50;99.90;;;;;;4976586;28;20042;-65
2023/08/06 04:07:36;;;;;;;32.80;19.23;;;14.40;99.90;;;;;;4986617;28;20373;-64
2023/08/06 04:10:04;;;;;;;33.08;19.30;;;14.10;99.90;;;;;;4990403;28;20046;-64
2023/08/06 04:12:30;;;;;;;41.95;20.80;;;14.30;99.90;;;;;;4980335;28;20105;-65
2023/08/06 04:14:58;;;;;;;29.42;18.38;;;14.30;99.90;;;;;;4981806;28;20084;-64
2023/08/06 04:17:24;;;;;;;34.63;20.35;;;14.00;99.90;;;;;;4985905;28;20034;-65
2023/08/06 04:19:52;;;;;;;41.63;21.25;;;14.30;99.90;;;;;;4988218;28;20381;-64
2023/08/06 04:22:18;;;;;;;39.53;22.77;;;14.20;99.90;;;;;;4960326;28;20076;-64
2023/08/06 04:24:47;;;;;;;31.10;18.85;;;14.20;99.90;;;;;;4988787;28;20038;-65
2023/08/06 04:27:14;;;;;;;39.38;20.60;;;13.90;99.90;;;;;;4993149;28;20089;-64
2023/08/06 04:29:40;;;;;;;32.83;20.50;;;13.80;99.90;;;;;;4993155;28;20420;-64
2023/08/06 04:32:07;;;;;;;30.83;18.17;;;14.00;99.90;;;;;;4987010;28;20061;-65
2023/08/06 04:34:34;;;;;;;34.10;19.58;;;14.10;99.90;;;;;;4989443;28;20030;-65
2023/08/06 04:37:00;;;;;;;34.25;20.05;;;13.80;99.90;;;;;;4994818;28;20042;-64
2023/08/06 04:39:26;;;;;;;34.60;21.02;;;14.10;99.90;;;;;;4991287;28;20092;-64
2023/08/06 04:41:58;;;;;;;41.00;20.15;;;14.30;99.90;;;;;;4994174;28;20042;-63
2023/08/06 04:44:23;;;;;;;49.38;22.70;;;14.40;99.90;;;;;;4998835;28;20431;-65
2023/08/06 04:46:49;;;;;;;34.75;19.58;;;14.30;99.90;;;;;;4989197;28;20042;-63
2023/08/06 04:49:15;;;;;;;24.45;16.48;;;14.30;99.90;;;;;;4992751;28;20065;-64
2023/08/06 04:51:42;;;;;;;30.85;19.05;;;14.40;99.90;;;;;;4980406;28;20057;-64
2023/08/06 04:54:07;;;;;;;32.42;18.30;;;14.30;99.90;;;;;;4990521;28;20516;-64
2023/08/06 04:56:33;;;;;;;24.80;17.30;;;13.90;99.90;;;;;;4983827;28;20046;-64
2023/08/06 04:58:59;;;;;;;30.05;17.65;;;14.30;99.90;;;;;;5007871;28;20129;-64
2023/08/06 05:01:25;;;;;;;29.00;18.42;;;13.90;99.90;;;;;;4990381;28;20042;-64
2023/08/06 05:03:51;;;;;;;31.58;19.50;;;14.50;99.90;;;;;;4992849;28;20042;-65
2023/08/06 05:06:16;;;;;;;30.45;19.25;;;14.20;99.90;;;;;;4987637;28;20037;-64
2023/08/06 05:08:42;;;;;;;32.38;19.52;;;14.40;99.90;;;;;;4990800;28;20511;-64
2023/08/06 05:11:09;;;;;;;35.22;19.55;;;14.00;99.90;;;;;;4984160;28;20456;-64
2023/08/06 05:13:35;;;;;;;28.73;18.02;;;13.80;99.90;;;;;;4992169;28;20110;-64
2023/08/06 05:16:01;;;;;;;33.88;19.48;;;;;;;;;;4972756;28;20576;-64
2023/08/06 05:18:27;;;;;;;28.13;18.40;;;14.40;99.90;;;;;;4989019;28;20038;-64
2023/08/06 05:20:53;;;;;;;33.55;19.92;;;14.00;99.90;;;;;;4980201;28;20038;-64
2023/08/06 05:23:18;;;;;;;25.88;18.48;;;14.30;99.90;;;;;;4990363;28;20030;-64
2023/08/06 05:25:44;;;;;;;30.75;19.38;;;14.20;99.90;;;;;;4976271;28;20488;-63
2023/08/06 05:28:09;;;;;;;37.28;20.83;;;14.40;99.90;;;;;;4988526;28;20074;-64
2023/08/06 05:30:39;;;;;;;30.30;19.50;;;14.30;99.90;;;;;;4987651;28;20053;-64
2023/08/06 05:33:05;;;;;;;32.58;19.60;;;14.80;99.90;;;;;;5007037;28;20036;-65
2023/08/06 05:35:30;;;;;;;48.90;22.92;;;14.80;99.90;;;;;;4994632;28;20034;-65
2023/08/06 05:37:56;;;;;;;31.98;19.52;;;15.30;99.90;;;;;;5002371;28;20061;-65
2023/08/06 05:40:22;;;;;;;37.55;21.08;;;14.90;99.90;;;;;;4988716;28;20475;-64
2023/08/06 05:42:47;;;;;;;36.15;19.48;;;14.90;99.90;;;;;;4998089;28;20042;-64
2023/08/06 05:45:13;;;;;;;33.00;19.50;;;14.90;99.90;;;;;;4992241;28;20039;-64
2023/08/06 05:47:39;;;;;;;26.88;18.13;;;14.60;99.90;;;;;;4991183;28;20057;-64
2023/08/06 05:50:05;;;;;;;42.00;19.70;;;14.60;99.90;;;;;;4992614;28;20034;-64
2023/08/06 05:52:30;;;;;;;32.22;19.10;;;14.90;99.90;;;;;;4999879;28;20041;-64
2023/08/06 05:54:56;;;;;;;38.08;19.10;;;15.00;99.90;;;;;;4995713;28;20042;-64
2023/08/06 05:57:22;;;;;;;24.75;17.00;;;;;;;;;;4994136;28;20045;-64
2023/08/06 05:59:51;;;;;;;23.88;15.98;;;14.90;99.90;;;;;;4988526;28;20046;-64
2023/08/06 06:02:18;;;;;;;36.13;19.83;;;14.80;99.90;;;;;;4991666;28;20153;-64
2023/08/06 06:04:44;;;;;;;22.75;16.02;;;15.20;99.90;;;;;;4986937;28;20054;-64
2023/08/06 06:07:09;;;;;;;23.73;16.70;;;15.50;99.90;;;;;;4997171;28;20037;-64
2023/08/06 06:09:35;;;;;;;23.05;17.08;;;15.50;99.90;;;;;;4971010;28;20038;-64
2023/08/06 06:12:01;;;;;;;25.05;17.33;;;15.20;99.90;;;;;;4979872;28;20515;-65
2023/08/06 06:14:27;;;;;;;22.55;17.02;;;15.60;99.90;;;;;;4992547;28;20034;-64
2023/08/06 06:16:53;;;;;;;29.40;17.63;;;15.20;99.90;;;;;;4985572;28;20470;-64
2023/08/06 06:19:18;;;;;;;26.17;17.10;;;15.20;99.90;;;;;;4979257;28;20081;-64
2023/08/06 06:21:44;;;;;;;30.58;19.33;;;16.00;99.90;;;;;;4978462;28;20072;-65
2023/08/06 06:24:10;;;;;;;22.13;16.02;;;15.80;99.90;;;;;;4986177;28;20084;-64
2023/08/06 06:26:35;;;;;;;34.22;18.02;;;15.30;99.90;;;;;;4982503;28;20030;-65
2023/08/06 06:29:01;;;;;;;20.17;14.27;;;16.00;99.90;;;;;;4984473;28;20074;-63
2023/08/06 06:31:27;;;;;;;27.05;17.52;;;15.40;99.90;;;;;;4998499;28;20456;-64
2023/08/06 06:33:54;;;;;;;21.27;14.90;;;16.00;99.90;;;;;;4978743;28;20179;-64
2023/08/06 06:36:20;;;;;;;22.13;16.42;;;15.50;99.90;;;;;;4986644;28;20049;-64
2023/08/06 06:38:45;;;;;;;23.00;15.18;;;16.30;99.90;;;;;;4989818;28;20373;-64
2023/08/06 06:41:11;;;;;;;18.27;13.93;;;15.60;99.90;;;;;;4980119;28;20065;-64
2023/08/06 06:43:39;;;;;;;23.00;15.27;;;15.90;99.90;;;;;;5005153;28;20039;-65
2023/08/06 06:46:05;;;;;;;17.75;13.57;;;16.00;99.90;;;;;;4995723;28;20049;-65
2023/08/06 06:48:33;;;;;;;19.08;13.30;;;15.90;99.90;;;;;;4981697;28;20042;-64
2023/08/06 06:50:59;;;;;;;19.60;14.35;;;16.40;99.90;;;;;;4984238;28;20039;-64
2023/08/06 06:53:27;;;;;;;17.98;12.80;;;16.50;99.90;;;;;;4980496;28;20554;-65
2023/08/06 06:56:01;;;;;;;19.00;12.77;;;16.30;99.90;;;;;;4981951;28;20042;-65
2023/08/06 06:58:27;;;;;;;16.42;12.20;;;16.30;99.90;;;;;;4981574;28;20121;-65
2023/08/06 07:00:53;;;;;;;17.83;13.02;;;16.30;99.90;;;;;;4992414;28;20463;-65
2023/08/06 07:03:20;;;;;;;15.13;10.63;;;16.10;99.90;;;;;;4987530;28;20091;-64
2023/08/06 07:05:45;;;;;;;21.17;13.63;;;16.00;99.90;;;;;;4984344;28;20408;-64
2023/08/06 07:08:11;;;;;;;17.88;12.75;;;16.30;99.90;;;;;;4987447;28;20053;-64
2023/08/06 07:10:37;;;;;;;17.80;12.05;;;15.90;99.90;;;;;;4985950;28;20065;-64
2023/08/06 07:13:06;;;;;;;17.23;12.05;;;16.40;99.90;;;;;;4978917;28;20035;-64
2023/08/06 07:15:32;;;;;;;18.17;12.82;;;16.60;99.90;;;;;;4986627;28;20084;-65
2023/08/06 07:17:58;;;;;;;16.90;11.88;;;16.70;99.90;;;;;;4949589;28;20034;-64
2023/08/06 07:20:24;;;;;;;17.83;12.70;;;16.70;99.90;;;;;;4983767;28;20046;-64
2023/08/06 07:22:50;;;;;;;14.23;10.27;;;16.60;99.90;;;;;;4992227;28;20049;-65
2023/08/06 07:25:16;;;;;;;20.17;12.15;;;16.60;99.90;;;;;;4988524;28;20650;-64
2023/08/06 07:27:42;;;;;;;14.38;10.25;;;16.50;99.90;;;;;;4985980;28;20181;-65
2023/08/06 07:30:08;;;;;;;14.52;9.18;;;16.60;99.90;;;;;;4978693;28;20553;-64
2023/08/06 07:32:33;;;;;;;13.20;9.23;;;16.50;99.90;;;;;;4983301;28;20041;-64
2023/08/06 07:35:02;;;;;;;12.15;9.23;;;16.40;99.90;;;;;;4984664;28;20031;-64
2023/08/06 07:37:28;;;;;;;10.85;8.52;;;16.60;99.90;;;;;;4986670;28;20452;-65
2023/08/06 07:39:57;;;;;;;11.63;8.70;;;17.10;99.90;;;;;;4980996;28;20527;-65
2023/08/06 07:42:23;;;;;;;13.18;9.35;;;16.90;99.90;;;;;;4987370;28;20042;-65
2023/08/06 07:44:53;;;;;;;11.20;7.50;;;16.60;99.90;;;;;;4987367;28;20053;-64
2023/08/06 07:47:19;;;;;;;10.45;7.90;;;17.20;99.90;;;;;;4989058;28;20386;-64
2023/08/06 07:49:45;;;;;;;12.32;8.45;;;17.20;99.90;;;;;;4994517;28;20041;-64
2023/08/06 07:52:11;;;;;;;9.48;7.00;;;17.10;99.90;;;;;;4978645;28;20447;-64
2023/08/06 07:54:36;;;;;;;8.25;6.38;;;17.50;99.90;;;;;;4979207;28;20026;-65
2023/08/06 07:57:03;;;;;;;10.10;7.07;;;17.80;99.90;;;;;;4990791;28;20049;-64
2023/08/06 07:59:28;;;;;;;8.75;6.20;;;17.40;99.90;;;;;;4987460;28;20039;-64
2023/08/06 08:01:54;;;;;;;8.70;5.95;;;17.30;99.90;;;;;;4990693;28;20042;-64
2023/08/06 08:04:20;;;;;;;8.63;6.30;;;17.70;99.90;;;;;;4973031;28;20551;-65
2023/08/06 08:06:47;;;;;;;11.70;6.40;;;17.70;99.90;;;;;;4989910;28;20465;-64
2023/08/06 08:09:13;;;;;;;8.02;5.40;;;17.90;99.90;;;;;;4988040;28;20096;-64
2023/08/06 08:11:43;;;;;;;7.72;4.43;;;17.80;99.90;;;;;;4985053;28;20080;-64
2023/08/06 08:14:08;;;;;;;6.95;3.72;;;17.50;99.90;;;;;;4985362;28;20045;-64
2023/08/06 08:16:34;;;;;;;6.45;3.50;;;18.00;99.90;;;;;;5003723;28;20050;-64
2023/08/06 08:19:00;;;;;;;6.97;4.10;;;17.80;99.90;;;;;;4984454;28;20049;-64
2023/08/06 08:21:25;;;;;;;7.30;3.88;;;18.30;99.90;;;;;;4982060;28;20497;-64
2023/08/06 08:23:51;;;;;;;9.25;3.95;;;18.40;99.90;;;;;;4988828;28;20481;-64
2023/08/06 08:26:17;;;;;;;7.07;3.90;;;17.90;99.90;;;;;;4984619;28;20039;-64
2023/08/06 08:28:43;;;;;;;6.15;3.15;;;18.20;99.90;;;;;;4984407;28;20042;-64
2023/08/06 08:31:09;;;;;;;7.35;3.85;;;18.00;99.90;;;;;;4984465;28;20037;-65
2023/08/06 08:33:35;;;;;;;7.63;3.80;;;18.20;99.90;;;;;;5009163;28;20047;-65
2023/08/06 08:36:01;;;;;;;7.30;3.50;;;18.60;92.70;;;;;;5006962;28;20494;-64
2023/08/06 08:38:26;;;;;;;6.57;3.20;;;18.60;86.50;;;;;;4987205;28;20623;-64
2023/08/06 08:40:55;;;;;;;6.15;3.08;;;18.40;70.50;;;;;;4982723;28;20453;-65
2023/08/06 08:43:22;;;;;;;5.95;3.40;;;18.30;65.50;;;;;;4985393;28;20040;-64
2023/08/06 08:45:51;;;;;;;6.93;3.42;;;18.30;7.70;;;;;;4985447;28;20045;-65
2023/08/06 08:48:19;;;;;;;35.72;5.45;;;18.80;1.00;;;;;;4989387;28;20103;-64
2023/08/06 08:50:47;;;;;;;6.88;3.55;;;18.10;1.00;;;;;;4990536;28;20134;-64
2023/08/06 08:53:17;;;;;;;6.50;3.25;;;18.20;1.00;;;;;;4976592;28;20049;-64
2023/08/06 08:55:44;;;;;;;5.43;2.90;;;18.60;99.90;;;;;;4975380;28;20448;-65
2023/08/06 08:58:10;;;;;;;7.47;3.35;;;18.90;1.00;;;;;;4979663;28;20054;-63
2023/08/06 09:00:36;;;;;;;7.50;3.38;;;19.00;1.00;;;;;;4989239;28;20479;-64
2023/08/06 09:03:06;;;;;;;6.47;2.80;;;18.60;99.90;;;;;;4990492;28;20046;-64
2023/08/06 09:05:32;;;;;;;5.15;2.88;;;18.40;99.90;;;;;;4981247;28;20035;-63
2023/08/06 09:08:03;;;;;;;5.80;3.08;;;18.70;99.90;;;;;;4977892;28;20113;-64
2023/08/06 09:10:28;;;;;;;5.47;2.88;;;19.00;99.90;;;;;;4982394;28;20050;-63
2023/08/06 09:12:56;;;;;;;5.28;2.78;;;18.90;99.90;;;;;;4987142;28;20123;-64
2023/08/06 09:15:25;;;;;;;6.90;2.72;;;19.30;99.90;;;;;;4987101;28;20377;-64
2023/08/06 09:17:55;;;;;;;6.97;2.65;;;18.90;99.90;;;;;;4977066;28;20453;-64
2023/08/06 09:20:21;;;;;;;6.90;2.78;;;19.00;99.90;;;;;;4984109;28;20374;-63
2023/08/06 09:22:48;;;;;;;5.78;2.90;;;19.40;99.90;;;;;;4989825;28;20050;-64
2023/08/06 09:25:26;;;;;;;6.13;2.67;;;19.50;99.90;;;;;;4987065;28;20117;-63
2023/08/06 09:27:52;;;;;;;9.98;2.67;;;19.40;99.90;;;;;;4984906;28;20057;-64
2023/08/06 09:30:31;;;;;;;5.45;2.55;;;19.50;99.90;;;;;;4988581;28;20509;-64
2023/08/06 09:32:57;;;;;;;5.80;2.72;;;19.50;99.90;;;;;;4982523;28;20440;-63
2023/08/06 09:35:23;;;;;;;7.13;2.72;;;19.60;99.90;;;;;;4984439;28;20093;-63
2023/08/06 09:37:49;;;;;;;5.63;2.55;;;19.70;68.20;;;;;;4982452;28;20089;-65
2023/08/06 09:40:31;;;;;;;6.00;2.35;;;19.80;10.80;;;;;;4978210;28;20038;-64
2023/08/06 09:42:58;;;;;;;5.60;2.53;;;20.40;1.00;;;;;;4985860;28;20113;-64
2023/08/06 09:45:31;;;;;;;6.30;2.75;;;19.70;1.00;;;;;;4982091;28;20034;-64
2023/08/06 09:47:58;;;;;;;5.77;2.93;;;19.80;1.00;;;;;;4984255;28;20452;-65
2023/08/06 09:50:28;;;;;;;5.00;2.45;;;19.80;1.00;;;;;;4972981;28;20039;-63
2023/08/06 09:52:56;;;;;;;5.82;3.00;;;19.90;1.00;;;;;;4984460;28;20404;-64
2023/08/06 09:55:22;;;;;;;6.65;2.97;;;19.70;99.90;;;;;;4989255;28;20053;-64
2023/08/06 09:57:50;;;;;;;6.22;2.92;;;19.80;99.90;;;;;;4957788;28;20368;-64
2023/08/06 10:00:16;;;;;;;5.65;3.20;;;19.60;99.90;;;;;;4977392;28;20100;-63
2023/08/06 10:02:43;;;;;;;6.60;3.22;;;19.50;99.90;;;;;;4986427;28;20417;-65
2023/08/06 10:05:09;;;;;;;5.97;2.75;;;19.70;99.90;;;;;;4986417;28;20125;-64
2023/08/06 10:07:35;;;;;;;7.50;2.92;;;19.20;99.90;;;;;;4989239;28;20038;-64
2023/08/06 10:10:02;;;;;;;7.15;3.00;;;19.00;99.90;;;;;;4984953;28;20412;-64
2023/08/06 10:12:32;;;;;;;7.10;3.00;;;19.00;99.90;;;;;;4982526;28;20389;-63
2023/08/06 10:15:01;;;;;;;7.57;3.20;;;19.10;99.90;;;;;;4981911;28;20492;-62
2023/08/06 10:17:28;;;;;;;5.60;2.67;;;19.50;99.90;;;;;;4979286;28;20058;-63
2023/08/06 10:19:57;;;;;;;5.40;2.50;;;19.20;99.90;;;;;;4991393;28;20400;-63
2023/08/06 10:22:24;;;;;;;8.70;3.42;;;19.20;99.90;;;;;;4991635;28;20059;-64
2023/08/06 10:24:54;;;;;;;6.15;3.03;;;19.70;99.90;;;;;;4981466;28;20042;-64
2023/08/06 10:27:33;;;;;;;6.45;2.90;;;19.40;99.90;;;;;;4980482;28;20591;-64
2023/08/06 10:30:28;;;;;;;6.35;2.88;;;19.00;99.90;;;;;;4984435;28;20043;-64
2023/08/06 10:33:00;;;;;;;6.45;2.67;;;19.60;99.90;;;;;;4978708;28;20081;-64
2023/08/06 10:35:35;;;;;;;6.22;3.17;;;18.90;99.90;;;;;;4988938;28;20034;-64
2023/08/06 10:38:11;;;;;;;5.35;2.70;;;19.10;99.90;;;;;;4984275;28;20373;-64
2023/08/06 10:40:40;;;;;;;6.80;3.40;;;19.00;99.90;;;;;;4978930;28;20121;-63
2023/08/06 10:43:07;;;;;;;8.32;3.42;;;19.00;99.90;;;;;;4974533;28;20070;-64
2023/08/06 10:45:37;;;;;;;5.60;2.83;;;19.00;99.90;;;;;;4987274;28;20044;-63
2023/08/06 10:48:04;;;;;;;6.13;3.38;;;19.30;99.90;;;;;;4981880;28;20052;-64
2023/08/06 10:50:31;;;;;;;6.15;3.35;;;19.00;99.90;;;;;;4980661;28;20042;-64
2023/08/06 10:52:57;;;;;;;6.47;3.60;;;18.80;99.90;;;;;;4984579;28;20084;-64
2023/08/06 10:55:24;;;;;;;7.95;3.17;;;19.30;99.90;;;;;;4992350;28;20038;-64
2023/08/06 10:57:51;;;;;;;6.72;3.55;;;19.30;99.90;;;;;;4983742;28;20181;-64
2023/08/06 11:00:16;;;;;;;7.28;3.72;;;19.20;99.90;;;;;;4992634;28;20384;-64
2023/08/06 11:02:43;;;;;;;7.88;3.75;;;18.90;99.90;;;;;;4992372;28;20038;-63
2023/08/06 11:05:10;;;;;;;6.50;3.50;;;19.30;99.90;;;;;;4992712;28;20076;-64
2023/08/06 11:07:36;;;;;;;7.63;3.63;;;19.10;99.90;;;;;;4992080;28;20184;-64
2023/08/06 11:10:11;;;;;;;7.28;4.47;;;19.10;99.90;;;;;;4992334;28;20180;-64
2023/08/06 11:12:37;;;;;;;7.50;3.97;;;19.20;99.90;;;;;;4989883;28;20175;-64
2023/08/06 11:15:04;;;;;;;7.50;4.45;;;18.90;99.90;;;;;;4991698;28;20360;-63
2023/08/06 11:17:31;;;;;;;6.97;3.70;;;19.20;99.90;;;;;;4990877;28;20073;-63
2023/08/06 11:20:00;;;;;;;7.35;4.53;;;18.80;99.90;;;;;;4980568;28;20053;-63
2023/08/06 11:22:27;;;;;;;7.65;4.50;;;19.40;99.90;;;;;;4986237;28;20042;-62
2023/08/06 11:24:53;;;;;;;6.25;3.90;;;19.10;99.90;;;;;;4985889;28;20365;-63
2023/08/06 11:27:19;;;;;;;7.32;4.22;;;19.30;99.90;;;;;;4976655;28;20089;-63
2023/08/06 11:29:45;;;;;;;9.13;4.70;;;19.60;98.00;;;;;;4980755;28;20047;-63
2023/08/06 11:32:12;;;;;;;8.90;4.53;;;19.70;65.50;;;;;;4981298;28;20520;-64
2023/08/06 11:34:40;;;;;;;6.78;3.40;;;19.50;67.00;;;;;;4977827;28;20089;-62
2023/08/06 11:37:07;;;;;;;6.47;3.55;;;19.90;1.00;;;;;;4987615;28;20105;-62
2023/08/06 11:39:37;;;;;;;7.10;3.50;;;19.60;90.60;;;;;;4983875;28;20065;-63
2023/08/06 11:42:04;;;;;;;6.18;3.65;;;19.50;96.70;;;;;;4986980;28;20061;-62
2023/08/06 11:44:34;;;;;;;6.30;4.10;;;19.60;29.90;;;;;;4991911;28;20039;-63
2023/08/06 11:47:04;;;;;;;6.43;3.85;;;19.60;50.60;;;;;;4977087;28;20512;-63
2023/08/06 11:49:44;;;;;;;8.63;3.60;;;19.50;1.00;;;;;;4991526;28;20049;-63
2023/08/06 11:52:26;;;;;;;5.25;2.90;;;19.50;96.70;;;;;;4991411;28;20080;-62
2023/08/06 11:55:03;;;;;;;7.32;3.53;;;19.70;99.90;;;;;;4975635;28;20064;-62
2023/08/06 11:57:34;;;;;;;7.47;3.90;;;19.60;99.90;;;;;;4978705;28;20121;-62
2023/08/06 12:00:08;;;;;;;7.40;3.58;;;19.70;29.30;;;;;;4979904;28;20043;-63
2023/08/06 12:02:35;;;;;;;8.05;3.85;;;19.70;38.10;;;;;;4978453;28;20353;-63
2023/08/06 12:05:12;;;;;;;7.53;3.75;;;20.20;28.00;;;;;;4975155;28;20520;-63
2023/08/06 12:07:40;;;;;;;6.03;3.50;;;20.00;22.40;;;;;;4987939;28;20034;-62
2023/08/06 12:10:06;;;;;;;8.00;4.30;;;20.00;91.00;;;;;;4983174;28;20116;-64
2023/08/06 12:12:32;;;;;;;8.00;3.90;;;20.10;39.90;;;;;;4991480;28;20034;-64
2023/08/06 12:14:57;;;;;;;5.97;3.45;;;19.90;1.00;;;;;;4978660;28;20081;-63
2023/08/06 12:17:24;;;;;;;7.63;4.00;;;20.00;1.00;;;;;;4984202;28;20035;-62
2023/08/06 12:19:50;;;;;;;8.48;3.70;;;19.60;5.70;;;;;;4988018;28;20053;-64
2023/08/06 12:22:16;;;;;;;7.07;4.20;;;19.70;12.40;;;;;;4985527;28;20042;-63
2023/08/06 12:24:43;;;;;;;6.25;3.80;;;19.70;61.60;;;;;;4982812;28;20100;-63
2023/08/06 12:27:09;;;;;;;6.93;3.88;;;19.60;7.30;;;;;;4986818;28;20038;-63
2023/08/06 12:29:36;;;;;;;8.10;4.38;;;19.60;50.80;;;;;;4983168;28;20058;-62
2023/08/06 12:32:03;;;;;;;6.28;3.20;;;19.20;10.30;;;;;;4978432;28;20493;-63
2023/08/06 12:34:29;;;;;;;7.00;3.53;;;19.30;51.80;;;;;;4977120;28;20054;-63